Tiempo atmosférico en la estación meteorológica de Sa Pobla, Illes Balears (40 m.)



Fecha
DESCASC
Temp. máxima en grados centígrados (hora)
DESCASC
Temp. mínima en grados centígrados (hora)
DESCASC
Temp. media en grados centígrados
DESCASC
Racha de viento máxima en m/sg (hora)
DESCASC
Velocidad máxima media en intervalos de 10 minutos(hora)
DESCASC
Precipitaciones diarias en mm
DESCASC
Precipitaciones de 00:00 a 06:00 en mm
DESCASC
Precipitaciones de 06:00 a 12:00 en mm
DESCASC
Precipitaciones de 12:00 a 18:00 en mm
DESCASC
Precipitaciones de 18:00 a 24:00 en mm
DESCASC
22-11-2020 17 (12:20) 6.7 (23:40) 11.8 10.56 (14:20) 7.22 (14:40) 0 0 0 0 0
21-11-2020 16 (14:30) 10.8 (23:10) 13.4 12.5 (13:10) 7.78 (13:10) 0 0 0 0 0
20-11-2020 18.3 (14:20) 10.8 (19:00) 14.5 11.67 (22:30) 7.5 (22:30) 0.2 0 0 0 0.2
19-11-2020 21.9 (14:10) 8.9 (00:00) 15.4 5.83 (14:10) 3.06 (16:20) 0 0 0 0 0
18-11-2020 20.4 (13:00) 7 (00:00) 13.7 4.72 (14:30) 2.78 (15:00) 0 0 0 0 0
17-11-2020 21.9 (15:00) 9.9 (00:00) 15.9 5.83 (14:10) 3.33 (17:00) 0 0 0 0 0
16-11-2020 20 (12:20) 13.5 (00:00) 16.8 11.39 (12:40) 6.67 (12:30) 0 0 0 0 0
15-11-2020 22.8 (13:40) 12.3 (00:00) 17.5 10.28 (21:10) 5.28 (17:10) 0 0 0 0 0
14-11-2020 22.6 (12:50) 12.3 (00:00) 17.5 5 (14:50) 3.61 (14:50) 0 0 0 0 0
13-11-2020 21.7 (12:40) 11.1 (00:00) 16.4 6.11 (14:20) 3.61 (15:30) 0 0 0 0 0
12-11-2020 21.9 (14:00) 9.5 (00:00) 15.7 5.83 (16:10) 3.61 (16:10) 0 0 0 0 0
11-11-2020 20.3 (14:20) 8.8 (00:00) 14.5 4.72 (13:10) 2.78 (14:40) 0 0 0 0 0
10-11-2020 21.7 (13:30) 9.1 (00:00) 15.4 8.61 (15:00) 6.11 (15:50) 0 0 0 0 0
09-11-2020 21.9 (14:10) 10.9 (00:00) 16.4 4.72 (15:40) 2.78 (14:30) 0.2 0 0.2 0 0
08-11-2020 23.3 (14:00) 10.6 (00:00) 16.9 5.28 (14:50) 3.33 (16:20) 0 0 0 0 0
07-11-2020 22.8 (15:50) 13.9 (00:00) 18.3 8.61 (10:00) 4.17 (10:10) 5.2 0 1.6 3.6 0
06-11-2020 22.7 (14:50) 17.6 (00:00) 20.2 7.5 (13:30) 5 (13:10) 0 0 0 0 0
05-11-2020 21.1 (12:50) 16.5 (00:00) 18.8 8.61 (12:50) 5.56 (09:30) 0 0 0 0 0
04-11-2020 18.7 (10:30) 16.1 (00:00) 17.4 11.11 (19:00) 6.94 (19:00) 0.6 0 0.6 0 0
03-11-2020 21.8 (13:40) 11 (00:00) 16.4 8.06 (22:40) 5 (22:20) 0 0 0 0 0
02-11-2020 23.7 (14:30) 12.1 (00:00) 17.9 6.39 (11:20) 3.61 (11:20) 0.2 0 0.2 0 0
01-11-2020 23.8 (14:30) 9 (00:00) 16.4 6.39 (14:50) 3.06 (14:40) 0 0 0 0 0
31-10-2020 24.8 (14:30) 9.2 (00:00) 17 6.11 (12:00) 3.06 (12:00) 0 0 0 0 0
30-10-2020 25.3 (14:10) 9.6 (00:00) 17.4 5.56 (15:00) 3.33 (15:10) 0 0 0 0 0
29-10-2020 23.9 (15:00) 9.1 (00:00) 16.5 5 (16:30) 2.78 (16:30) 0 0 0 0 0
28-10-2020 23.8 (14:30) 8.5 (00:00) 16.1 7.5 (12:40) 3.89 (14:00) 0 0 0 0 0
27-10-2020 20.7 (14:10) 9.7 (00:00) 15.2 11.11 (01:30) 5.83 (11:40) 0 0 0 0 0

Gráficas

Temp. máximas Temp. mínimas Temp. medias Precipitaciones Rachas de viento máximas Velocidades máximas media en intervalos de 10 minutos

Datos horarios

Fecha y hora oficial Temperatura (ºC) Velocidad del viento (km/h) Dirección del viento Racha (km/h) Dirección de racha Precipitación (mm) Presión (hPa) Tendencia (hPa) Humedad (%)
2020-11-25 23:00:00 10.2 7 Sudoeste 9 Sudoeste 0 1014 0.2 89
2020-11-25 22:00:00 9.6 3 Sudeste 9 Sudoeste 0 1014 0.6 89
2020-11-25 21:00:00 11.2 4 Sudoeste 8 Sur 0 1013.9 0.6 86
2020-11-25 20:00:00 13.2 3 Sudoeste 7 Noroeste 0 1013.8 0.8 81
2020-11-25 19:00:00 15.3 4 Sudoeste 20 Sudeste 0 1013.4 0.1 75
2020-11-25 18:00:00 15.2 5 Sudeste 12 Sudeste 0 1013.3 -0.1 71
2020-11-25 17:00:00 17.1 7 Sudeste 18 Sur 0 1013 -0.7 61
2020-11-25 16:00:00 18.1 12 Sur 25 Sur 0 1013.3 -1 55
2020-11-25 15:00:00 18.2 5 Este 17 Este 0 1013.4 -1.8 64
2020-11-25 14:00:00 18 10 Sudeste 17 Sudoeste 0 1013.7 -2.2 61
2020-11-25 13:00:00 18.2 5 Noroeste 10 Norte 0 1014.3 -- 62
2020-11-25 12:00:00 16.9 4 Nordeste 7 Nordeste 0 1015.2 -- 64
2020-11-25 11:00:00 15.1 3 Este 8 Noroeste 0 1015.9 -- 73
2020-11-25 10:00:00 13 0 Calma 11 Este 0 1015.9 -- 81
2020-11-25 09:00:00 12.3 5 Sudeste 12 Este 0 1016 -- 82
2020-11-25 08:00:00 11 9 Oeste 13 Oeste 0 1015.5 -- 87
2020-11-25 07:00:00 10.5 6 Sudoeste 10 Sudoeste 0 1015.5 -- 87
2020-11-25 06:00:00 10.6 4 Sur 12 Sur 0 1015.4 -- 86
2020-11-25 05:00:00 11.6 3 Sudoeste 7 Oeste 0 1015.7 -- 82
2020-11-25 04:00:00 11.5 4 Sur 7 Sur 0 1015.7 -- 83
2020-11-25 03:00:00 11.4 3 Sur 5 Oeste 0 1016.3 -- 83
2020-11-25 02:00:00 12 3 Oeste 6 Oeste 0 1016.7 -- 81
2020-11-25 01:00:00 12.2 2 Sudoeste 8 Sudoeste 0 1017.2 -- 77
2020-11-25 00:00:00 12.2 4 Sudoeste 6 Sudoeste 0 1017.6 -- 79
2020-11-24 23:00:00 12.3 3 Sudoeste 6 Sudoeste 0 1018 -- 77
2020-11-24 22:00:00 12.4 4 Sudoeste 8 Sudoeste 0 1018.1 -- 75
2020-11-24 21:00:00 12.2 3 Sudoeste 7 Sudoeste 0 1018.4 -- 74
2020-11-24 20:00:00 12 3 Sur 8 Oeste 0 1018.5 -- 74
2020-11-24 19:00:00 11.9 6 Sur 10 Sur 0 1018.4 -- 72
2020-11-24 18:00:00 13.7 6 Sur 13 Sur 0 1018.3 -- 66
2020-11-24 17:00:00 16.4 6 Sur 14 Sur 0 1018.2 -- 57
2020-11-24 16:00:00 17 6 Sur 21 Sur 0 1018.3 -- 55
2020-11-24 15:00:00 17.9 13 Sur 23 Sur 0 1018.7 -- 53
2020-11-24 14:00:00 17.5 8 Sur 19 Sur 0 1019.5 -- 52
2020-11-24 13:00:00 18.3 8 Sur 19 Sudoeste 0 1020.2 -- 50
2020-11-24 12:00:00 17.6 9 Sur 18 Sudoeste 0 1021.3 -- 54
2020-11-24 11:00:00 15.8 8 Sur 11 Sur 0 1022 -- 65
2020-11-24 10:00:00 11.7 7 Sur 11 Sur 0 1022.1 -- 79
2020-11-24 09:00:00 6.6 7 Sur 10 Sur 0 1022.1 -- 93
2020-11-24 08:00:00 4.5 5 Sur 11 Sur 0 1022 -- 94
2020-11-24 07:00:00 4.6 8 Sur 12 Sur 0 1022 -- 94
2020-11-24 06:00:00 4.9 6 Sur 11 Sudoeste 0 1022 -- 94
2020-11-24 05:00:00 5.2 7 Sudoeste 12 Sur 0 1021.9 -- 93
2020-11-24 04:00:00 5.3 8 Sudoeste 13 Sur 0 1022.3 -- 93
2020-11-24 03:00:00 5.5 9 Sur 13 Sur 0 1022.6 -- 93
2020-11-24 02:00:00 5.7 8 Sur 11 Sur 0 1022.8 -- 92
2020-11-24 01:00:00 6.3 8 Sur 12 Sur 0 1023.2 -- 91
2020-11-24 00:00:00 6.4 8 Sur 12 Sur 0 1023.7 -- 90
2020-11-23 23:00:00 6.7 8 Sur 10 Sur 0 1023.9 -- 90
2020-11-23 22:00:00 7.3 5 Sur 7 Sur 0 1024 -- 89
2020-11-23 21:00:00 8.1 0 Calma 10 Oeste 0 1023.9 -- 85
2020-11-23 20:00:00 10 5 Oeste 9 Oeste 0 1023.9 -- 82
2020-11-23 19:00:00 10.3 5 Sudoeste 8 Sudoeste 0 1023.8 -- 80
2020-11-23 18:00:00 11.9 2 Oeste 8 Este 0 1023.5 -- 74
2020-11-23 17:00:00 14.5 5 Este 13 Nordeste 0 1023.2 -- 64
2020-11-23 16:00:00 16.4 9 Nordeste 18 Norte 0 1023.1 -- 56
2020-11-23 15:00:00 17.2 12 Nordeste 19 Nordeste 0 1023.1 -- 53
2020-11-23 14:00:00 16.8 4 Este 15 Este 0 1023.5 -- 53
2020-11-23 13:00:00 16.7 8 Nordeste 16 Nordeste 0 1024 -- 52
2020-11-23 12:00:00 16.8 6 Este 14 Este 0 1024.6 -- 52
2020-11-23 11:00:00 16.3 4 Este 7 Sudoeste 0 1025.1 -- 55
2020-11-23 10:00:00 12 5 Sudoeste 9 Sur 0 1025.1 -- 73
2020-11-23 09:00:00 8.3 5 Sur 11 Sudoeste 0 1024.7 -- 83
2020-11-23 08:00:00 5 7 Sur 12 Sur 0 1024.5 -- 90
2020-11-23 07:00:00 4.9 7 Sur 12 Sur 0 1024.1 -- 90
2020-11-23 06:00:00 5.2 7 Sur 10 Sur 0 1023.9 -- 90
2020-11-23 05:00:00 4.9 6 Sur 11 Sur 0 1023.9 -- 90
2020-11-23 04:00:00 5.1 6 Sur 10 Sur 0 1023.9 -- 90
2020-11-23 03:00:00 5.7 6 Sur 11 Sudoeste 0 1023.8 -- 89
2020-11-23 02:00:00 6.2 7 Sudoeste 9 Sur 0 1024 -- 88
2020-11-23 01:00:00 6.3 5 Sur 10 Oeste 0 1024.1 -- 86
2020-11-23 00:00:00 6.8 5 Sudoeste 11 Sudoeste 0 1024.2 -- 87
2020-11-22 23:00:00 8 10 Sudoeste 13 Sur 0 1024.2 -- 83
2020-11-22 22:00:00 7.5 5 Sur 8 Sudoeste 0 1024.1 -- 86
2020-11-22 21:00:00 9.1 4 Sudoeste 6 Sur 0 1024.1 -- 80
2020-11-22 20:00:00 9.8 3 Sudoeste 13 Noroeste 0 1023.8 -- 74
2020-11-22 19:00:00 10.7 5 Noroeste 10 Noroeste 0 1023.4 -- 73
2020-11-22 18:00:00 12.7 6 Noroeste 22 Norte 0 1023.3 -- 65
2020-11-22 17:00:00 14.7 14 Norte 28 Norte 0 1022.7 -- 58
2020-11-22 16:00:00 15.7 15 Norte -- -- 0 1022.5 -- 55
2020-11-22 15:00:00 16.1 22 Norte 38 Nordeste 0 1022.8 -- 50
2020-11-22 14:00:00 16.6 23 Norte 37 Nordeste 0 1023.1 -- 48
2020-11-22 13:00:00 16.4 22 Norte 36 Norte 0 1023.5 -- 52
2020-11-22 12:00:00 16.4 19 Norte 36 Norte 0 1023.9 -- 53
2020-11-22 11:00:00 16.2 19 Norte 34 Norte 0 1024.4 -- 56
2020-11-22 10:00:00 15 21 Norte 31 Norte 0 1024 -- 58
2020-11-22 09:00:00 13.5 13 Norte 19 Norte 0 1023.8 -- 63
2020-11-22 08:00:00 11 7 Norte 18 Norte 0 1023.8 -- 74
2020-11-22 07:00:00 11.1 10 Norte 21 Norte 0 1023.8 -- 75
2020-11-22 06:00:00 7.3 2 Sudoeste 11 Norte 0 1023.9 -- 86
2020-11-22 05:00:00 9.4 7 Norte 13 Norte 0 1023.6 -- 85
2020-11-22 04:00:00 9.3 6 Norte 13 Noroeste 0 1023.5 -- 78
2020-11-22 03:00:00 10.8 9 Norte 14 Norte 0 1023.7 -- 73
2020-11-22 02:00:00 11.2 8 Norte 15 Norte 0 1024.1 -- 71
2020-11-22 01:00:00 12 8 Noroeste 16 Norte 0 1024.6 -- 69
2020-11-22 00:00:00 11.4 9 Noroeste 14 Norte 0 1024.6 -- 72
2020-11-21 23:00:00 11.1 9 Noroeste 15 Norte 0 1024.6 -- 72
2020-11-21 22:00:00 12.1 8 Norte 21 Norte 0 1024.8 -- 69
2020-11-21 21:00:00 12.6 13 Norte 20 Norte 0 1024.7 -- 69
2020-11-21 20:00:00 13 12 Norte 23 Norte 0 1024.7 -- 69
2020-11-21 19:00:00 12.7 10 Norte 27 Norte 0 1024.4 -- 70
2020-11-21 18:00:00 13.4 10 Norte 25 Norte 0 1024.2 -- 68
2020-11-21 17:00:00 14 12 Norte 31 Norte 0 1024.2 -- 65
2020-11-21 16:00:00 14.7 20 Norte 32 Norte 0 1023.8 -- 61
2020-11-21 15:00:00 14.8 18 Norte 34 Norte 0 1023.9 -- 61
2020-11-21 14:00:00 15.1 24 Norte 45 Norte 0 1024.1 -- 57
2020-11-21 13:00:00 15.4 27 Norte 43 Norte 0 1024.3 -- 51
2020-11-21 12:00:00 15.3 23 Norte 40 Norte 0 1025.1 -- 50
2020-11-21 11:00:00 15 22 Norte 41 Nordeste 0 1025.2 -- 54
2020-11-21 10:00:00 14.6 17 Norte 38 Norte 0 1025.1 -- 57
2020-11-21 09:00:00 13.4 18 Norte 28 Norte 0 1024.6 -- 59
2020-11-21 08:00:00 12 16 Nordeste 30 Norte 0 1024.3 -- 61
2020-11-21 07:00:00 12.5 17 Norte 30 Norte 0 1023.3 -- 57
2020-11-21 06:00:00 12.3 17 Norte 40 Nordeste 0 1023 -- 59
2020-11-21 05:00:00 12.9 22 Norte 42 Norte 0 1023 -- 52
2020-11-21 04:00:00 12.4 21 Norte 36 Norte 0 1022.8 -- 59
2020-11-21 03:00:00 12.6 19 Norte 37 Nordeste 0 1022.8 -- 58
2020-11-21 02:00:00 12.3 13 Norte 27 Norte 0 1023.2 -- 58
2020-11-21 01:00:00 12.4 14 Nordeste 28 Nordeste 0 1023.4 -- 57
2020-11-21 00:00:00 12.9 14 Norte 31 Norte 0 1023.7 -- 53
2020-11-20 23:00:00 13.5 20 Nordeste 42 Norte 0.2 1023.7 -- 49
2020-11-20 22:00:00 14.3 21 Norte 36 Norte 0 1023.7 -- 44
2020-11-20 21:00:00 14.5 17 Nordeste 31 Nordeste 0 1023.4 -- 53
2020-11-20 20:00:00 13.8 13 Nordeste 23 Nordeste 0 1023 -- 58
2020-11-20 19:00:00 10.9 3 Este 15 Nordeste 0 1022.6 -- 61
2020-11-20 18:00:00 14 9 Norte 22 Norte 0 1022.1 -- 43
2020-11-20 17:00:00 15.8 10 Norte 36 Norte 0 1022 -- 37
2020-11-20 16:00:00 17.1 16 Norte 28 Norte 0 1021.9 -- 47
2020-11-20 15:00:00 17.8 13 Norte 33 Norte 0 1021.9 -- 52
2020-11-20 14:00:00 17.9 14 Norte 28 Norte 0 1022.5 -- 51
2020-11-20 13:00:00 17.3 21 Norte 33 Nordeste 0 1022.9 -- 47
2020-11-20 12:00:00 16.7 17 Norte 29 Norte 0 1023.9 -- 50
2020-11-20 11:00:00 14.8 11 Norte 35 Nordeste 0 1024.5 -- 68
2020-11-20 10:00:00 15.3 15 Norte 30 Norte 0 1023.9 -- 70
2020-11-20 09:00:00 15.3 11 Norte 22 Norte 0 1023.8 -- 68
2020-11-20 08:00:00 15.1 12 Norte 21 Norte 0 1023.5 -- 68
2020-11-20 07:00:00 15.1 9 Norte 15 Norte 0 1023.3 -- 75
2020-11-20 06:00:00 14.9 5 Norte 16 Nordeste 0 1023.5 -- 73
2020-11-20 05:00:00 15.2 10 Nordeste 18 Nordeste 0 1024 -- 71
2020-11-20 04:00:00 15.5 7 Nordeste 12 Nordeste 0 1023.8 -- 68
2020-11-20 03:00:00 15.4 4 Norte 18 Nordeste 0 1024.3 -- 71
2020-11-20 02:00:00 15.4 8 Nordeste 14 Nordeste 0 1024.8 -- 76
2020-11-20 01:00:00 13.3 6 Este 16 Nordeste 0 1025.1 -- 89
2020-11-20 00:00:00 12.5 3 Este 12 Oeste 0 1025 -- 90
2020-11-19 23:00:00 13.7 6 Oeste 12 Sur 0 1025 -- 88
2020-11-19 22:00:00 13.9 3 Sudoeste 10 Sur 0 1025.2 -- 86
2020-11-19 21:00:00 14.3 3 Este 8 Sudoeste 0 1025.2 -- 86
2020-11-19 20:00:00 13.4 2 Sudoeste 10 Oeste 0 1025 -- 87
2020-11-19 19:00:00 14.6 3 Oeste 6 Noroeste 0 1024.6 -- 84
2020-11-19 18:00:00 16.4 2 Nordeste 8 Nordeste 0 1024.2 -- 79
2020-11-19 17:00:00 19.2 6 Nordeste 18 Norte 0 1023.9 -- 67
2020-11-19 16:00:00 21.3 7 Nordeste 13 Nordeste 0 1024.1 -- 56
2020-11-19 15:00:00 21.3 9 Norte 21 Nordeste 0 1024.1 -- 53
2020-11-19 14:00:00 21.7 9 Norte 19 Nordeste 0 1024.4 -- 48
2020-11-19 13:00:00 20.8 3 Sudeste 8 Oeste 0 1024.9 -- 59
2020-11-19 12:00:00 19.8 4 Noroeste 10 Norte 0 1025.6 -- 65
2020-11-19 11:00:00 18.7 4 Sur 9 Sudeste 0 1025.9 -- 68
2020-11-19 10:00:00 15.4 4 Sur 9 Sur 0 1025.7 -- 82
2020-11-19 09:00:00 11.9 5 Sur 12 Sudoeste 0 1025.6 -- 91
2020-11-19 08:00:00 10.5 6 Sudoeste 9 Sudoeste 0 1025.1 -- 95
2020-11-19 07:00:00 10.5 5 Sur 9 Sudoeste 0 1024.7 -- 95
2020-11-19 06:00:00 10.4 6 Sudoeste 11 Sur 0 1024.3 -- 94
2020-11-19 05:00:00 10.1 8 Sur 12 Sur 0 1024.2 -- 94
2020-11-19 04:00:00 9.9 8 Sur 12 Sur 0 1024.4 -- 95
2020-11-19 03:00:00 9.2 7 Sur 12 Sur 0 1024.5 -- 95
2020-11-19 02:00:00 9.1 8 Sur 11 Sur 0 1024.5 -- 95
2020-11-19 01:00:00 9 8 Sur 10 Sur 0 1024.9 -- 95
2020-11-19 00:00:00 9.6 4 Sur 8 Sur 0 1024.9 -- 94
2020-11-18 23:00:00 10.7 3 Sudoeste 10 Sudoeste 0 1024.7 -- 94
2020-11-18 22:00:00 10.7 6 Sudoeste 10 Sudoeste 0 1024.5 -- 93
2020-11-18 21:00:00 10.9 3 Sudoeste 8 Oeste 0 1024.3 -- 91
2020-11-18 20:00:00 12.1 4 Oeste 7 Sur 0 1024.2 -- 91
2020-11-18 19:00:00 13 0 Calma 6 Sudoeste 0 1023.8 -- 87
2020-11-18 18:00:00 14.8 0 Calma 12 Nordeste 0 1023.4 -- 84
2020-11-18 17:00:00 17.7 7 Nordeste 14 Nordeste 0 1023.1 -- 72
2020-11-18 16:00:00 19.2 8 Nordeste 16 Nordeste 0 1022.9 -- 67
2020-11-18 15:00:00 19.9 10 Nordeste 17 Nordeste 0 1023 -- 63
2020-11-18 14:00:00 20 7 Nordeste 15 Este 0 1023.2 -- 59
2020-11-18 13:00:00 20.3 6 Este 12 Este 0 1023.7 -- 55
2020-11-18 12:00:00 19.3 5 Nordeste 12 Este 0 1024.3 -- 60
2020-11-18 11:00:00 18.2 3 Este 7 Este 0 1024.8 -- 69
2020-11-18 10:00:00 14.8 3 Sudoeste 9 Sur 0 1024.8 -- 80
2020-11-18 09:00:00 10.3 5 Sur 10 Sur 0 1024.6 -- 91
2020-11-18 08:00:00 7.3 4 Sudoeste 12 Sur 0 1024 -- 95
2020-11-18 07:00:00 7.1 7 Sur 11 Sur 0 1023.7 -- 95
2020-11-18 06:00:00 7.8 8 Sur 10 Sur 0 1023.6 -- 95
2020-11-18 05:00:00 8.1 6 Sur 12 Sudoeste 0 1023.3 -- 95
2020-11-18 04:00:00 8.1 6 Sur 10 Sur 0 1023.2 -- 94
2020-11-18 03:00:00 8.8 6 Sur 10 Sur 0 1023.5 -- 94
2020-11-18 02:00:00 9.2 5 Sudoeste 10 Sudoeste 0 1023.5 -- 94
2020-11-18 01:00:00 9.9 7 Sudoeste 10 Sudoeste 0 1023.8 -- 94
2020-11-18 00:00:00 10.2 6 Sur 9 Sur 0 1023.8 -- 92
2020-11-17 23:00:00 10.9 4 Sudoeste 9 Oeste 0 1023.8 -- 89
2020-11-17 22:00:00 12.5 8 Oeste 11 Oeste 0 1023.8 -- 86
2020-11-17 21:00:00 14.6 4 Norte 17 Norte 0 1023.4 -- 84
2020-11-17 20:00:00 15.2 7 Norte 17 Norte 0 1022.9 -- 81
2020-11-17 19:00:00 16.2 7 Norte 17 Norte 0 1022.5 -- 76
2020-11-17 18:00:00 17.1 9 Norte 19 Norte 0 1022.1 -- 71
2020-11-17 17:00:00 18.9 12 Norte 19 Norte 0 1021.9 -- 62
2020-11-17 16:00:00 20.6 11 Noroeste 20 Noroeste 0 1021.7 -- 52
2020-11-17 15:00:00 21.8 4 Oeste 21 Norte 0 1021.4 -- 50
2020-11-17 14:00:00 21.3 8 Noroeste 18 Noroeste 0 1021.9 -- 50
2020-11-17 13:00:00 21 4 Nordeste 16 Nordeste 0 1022.3 -- 54
2020-11-17 12:00:00 19.8 4 Nordeste 9 Nordeste 0 1023.2 -- 59
2020-11-17 11:00:00 18.9 6 Sur 11 Sudeste 0 1023.4 -- 63
2020-11-17 10:00:00 16.5 5 Sur 10 Sur 0 1023.3 -- 75
2020-11-17 09:00:00 12.6 6 Sur 11 Sudoeste 0 1022.9 -- 89
2020-11-17 08:00:00 10 6 Sur 9 Sur 0 1022.3 -- 94
2020-11-17 07:00:00 10.6 5 Sur 8 Sur 0 1021.8 -- 93
2020-11-17 06:00:00 10.9 5 Sur 9 Sur 0 1021.6 -- 93
2020-11-17 05:00:00 11.2 5 Sur 8 Sur 0 1021.5 -- 93
2020-11-17 04:00:00 11.4 4 Sudoeste 9 Sur 0 1021.4 -- 92
2020-11-17 03:00:00 11.9 6 Sudoeste 9 Sudoeste 0 1021.7 -- 91
2020-11-17 02:00:00 13.1 5 Sudoeste 9 Sur 0 1021.5 -- 88
2020-11-17 01:00:00 14.2 4 Sur 6 Sur 0 1021.7 -- 85
2020-11-17 00:00:00 13.7 2 Oeste 6 Noroeste 0 1021.9 -- 87
2020-11-16 23:00:00 14.2 5 Noroeste 9 Noroeste 0 1022.1 -- 82
2020-11-16 22:00:00 15 4 Noroeste 8 Noroeste 0 1021.9 -- 82
2020-11-16 21:00:00 15.8 5 Norte 9 Noroeste 0 1021.5 -- 76
2020-11-16 20:00:00 15.6 6 Noroeste 10 Norte 0 1020.9 -- 76
2020-11-16 19:00:00 15.2 7 Noroeste 12 Norte 0 1020.5 -- 75
2020-11-16 18:00:00 16.5 7 Norte 15 Nordeste 0 1019.8 -- 69
2020-11-16 17:00:00 17.2 12 Nordeste 28 Nordeste 0 1019.7 -- 66
2020-11-16 16:00:00 17.7 15 Nordeste 31 Nordeste 0 1018.8 -- 66
2020-11-16 15:00:00 18.9 16 Nordeste 33 Nordeste 0 1018.6 -- 64
2020-11-16 14:00:00 18.8 19 Nordeste 35 Nordeste 0 1018.7 -- 62
2020-11-16 13:00:00 19.4 21 Nordeste 41 Nordeste 0 1018.3 -- 59
2020-11-16 12:00:00 19.2 16 Nordeste 29 Nordeste 0 1018.8 -- 69
2020-11-16 11:00:00 18.8 18 Nordeste 33 Nordeste 0 1018.8 -- 70
2020-11-16 10:00:00 18.2 19 Nordeste 31 Norte 0 1018.3 -- 82
2020-11-16 09:00:00 18.4 20 Nordeste 31 Norte 0 1017.1 -- 83
2020-11-16 08:00:00 18.3 5 Este 14 Sur 0 1015.7 -- 78
2020-11-16 07:00:00 19 8 Sudoeste 16 Sudoeste 0 1014.7 -- 75
2020-11-16 06:00:00 19.2 8 Sudoeste 18 Sudoeste 0 1014.5 -- 75
2020-11-16 05:00:00 19.6 9 Sudoeste 23 Sudoeste 0 1014 -- 72
2020-11-16 04:00:00 19.6 9 Sudoeste 25 Sudoeste 0 1014.2 -- 75
2020-11-16 03:00:00 19 16 Sudoeste 29 Sur 0 1014.5 -- 83
2020-11-16 02:00:00 18.6 5 Oeste 24 Sur 0 1014.6 -- 87
2020-11-16 01:00:00 18.5 13 Sudoeste 32 Sudoeste 0 1014.9 -- 87
2020-11-16 00:00:00 18.2 16 Sudoeste 32 Sudoeste 0 1015.1 -- 84
2020-11-15 23:00:00 18.9 16 Sudoeste 36 Oeste 0 1015.3 -- 79
2020-11-15 22:00:00 18.8 13 Sudoeste 37 Sudoeste 0 1015.8 -- 80
2020-11-15 21:00:00 19 15 Sudoeste 36 Sudoeste 0 1015.5 -- 70
2020-11-15 20:00:00 17.8 13 Sudoeste 26 Sur 0 1015.5 -- 78
2020-11-15 19:00:00 17.8 13 Sur 29 Sudoeste 0 1015.5 -- 77
2020-11-15 18:00:00 18.8 15 Sudoeste 34 Sur 0 1015.2 -- 70
2020-11-15 17:00:00 20.2 17 Sudoeste 34 Sudoeste 0 1014.8 -- 65
2020-11-15 16:00:00 21.7 17 Sudoeste 33 Sur 0 1014.9 -- 60
2020-11-15 15:00:00 22.6 14 Sudoeste 33 Sudoeste 0 1014.8 -- 59
2020-11-15 14:00:00 22.3 18 Sudoeste 36 Sudoeste 0 1015.1 -- 62
2020-11-15 13:00:00 22 17 Sudoeste 36 Sudoeste 0 1015.4 -- 67
2020-11-15 12:00:00 21.8 13 Sudoeste 31 Sudoeste 0 1016 -- 66
2020-11-15 11:00:00 20.7 13 Sur 25 Sudoeste 0 1016.5 -- 75
2020-11-15 10:00:00 17.7 6 Sur 12 Sudoeste 0 1016.8 -- 86
2020-11-15 09:00:00 13.9 0 Calma 6 Sudeste 0 1016.8 -- 96
2020-11-15 08:00:00 12.7 2 Sur 8 Sur 0 1016.4 -- 96
2020-11-15 07:00:00 13 5 Sur 8 Sur 0 1016.1 -- 96
2020-11-15 06:00:00 13.2 4 Sudoeste 7 Sudoeste 0 1015.8 -- 96
2020-11-15 05:00:00 14.2 4 Sur 7 Sudoeste 0 1015.7 -- 95
2020-11-15 04:00:00 14.8 2 Sudoeste 5 Noroeste 0 1015.9 -- 95
2020-11-15 03:00:00 15.6 3 Sudoeste 9 Sur 0 1016.2 -- 94
2020-11-15 02:00:00 15.6 5 Sur 7 Sur 0 1016.2 -- 94
2020-11-15 01:00:00 15.8 2 Sudoeste 6 Sudoeste 0 1016.6 -- 93
2020-11-15 00:00:00 16 2 Sudoeste 6 Sudoeste 0 1016.8 -- 93
2020-11-14 23:00:00 16.4 5 Sur 7 Sur 0 1016.9 -- 92
2020-11-14 22:00:00 16.4 4 Sudoeste 8 Oeste 0 1016.8 -- 90
2020-11-14 21:00:00 17.1 5 Oeste 10 Oeste 0 1016.6 -- 88
2020-11-14 20:00:00 16.7 0 Calma 5 Oeste 0 1016.5 -- 89
2020-11-14 19:00:00 17.7 2 Oeste 7 Sur 0 1016.3 -- 87
2020-11-14 18:00:00 18.1 5 Este 8 Nordeste 0 1015.8 -- 80
2020-11-14 17:00:00 19.7 5 Nordeste 15 Este 0 1015.8 -- 74
2020-11-14 16:00:00 20.7 10 Nordeste 17 Este 0 1015.8 -- 73
2020-11-14 15:00:00 20.9 12 Nordeste 18 Nordeste 0 1015.7 -- 75
2020-11-14 14:00:00 22 10 Nordeste 17 Nordeste 0 1015.9 -- 65
2020-11-14 13:00:00 22.1 5 Nordeste 12 Nordeste 0 1016.1 -- 61
2020-11-14 12:00:00 21.5 5 Este 11 Este 0 1016.8 -- 67
2020-11-14 11:00:00 21 5 Este 12 Este 0 1017.1 -- 75
2020-11-14 10:00:00 19.6 3 Norte 5 Sur 0 1017.1 -- 82
2020-11-14 09:00:00 14.8 3 Sur 7 Sur 0 1017 -- 96
2020-11-14 08:00:00 12.4 2 Sur 5 Sur 0 1016.5 -- 96
2020-11-14 07:00:00 13 2 Sudoeste 6 Sudoeste 0 1016.3 -- 96
2020-11-14 06:00:00 12.9 3 Sur 4 Sur 0 1016.2 -- 96
2020-11-14 05:00:00 13.2 3 Sur 4 Sur 0 1016.1 -- 96
2020-11-14 04:00:00 12.9 0 Calma 6 Sur 0 1016.2 -- 95
2020-11-14 03:00:00 13.1 0 Calma 5 Sur 0 1016.7 -- 95
2020-11-14 02:00:00 13.2 3 Sur 4 Sudeste 0 1017.1 -- 95
2020-11-14 01:00:00 13.2 2 Sudoeste 5 Sur 0 1017.6 -- 95
2020-11-14 00:00:00 13.6 2 Sudoeste 5 Sur 0 1017.7 -- 94
2020-11-13 23:00:00 13.7 4 Sur 6 Sur 0 1017.8 -- 94
2020-11-13 22:00:00 13.6 4 Noroeste 7 Noroeste 0 1017.6 -- 94
2020-11-13 21:00:00 13.9 0 Calma 7 Noroeste 0 1017.4 -- 93
2020-11-13 20:00:00 15.4 6 Noroeste 9 Noroeste 0 1017.2 -- 90
2020-11-13 19:00:00 16.1 2 Norte 7 Norte 0 1017.1 -- 89
2020-11-13 18:00:00 17.7 5 Norte 10 Norte 0 1016.6 -- 85
2020-11-13 17:00:00 19.9 8 Nordeste 16 Nordeste 0 1016.5 -- 74
2020-11-13 16:00:00 20.9 12 Nordeste 20 Nordeste 0 1016.2 -- 68
2020-11-13 15:00:00 21.5 9 Nordeste 22 Nordeste 0 1016.1 -- 68
2020-11-13 14:00:00 21.4 10 Nordeste 22 Nordeste 0 1016.6 -- 69
2020-11-13 13:00:00 21.2 8 Nordeste 17 Nordeste 0 1017 -- 69
2020-11-13 12:00:00 20.5 4 Nordeste 16 Nordeste 0 1017.7 -- 70
2020-11-13 11:00:00 19.7 4 Norte 9 Norte 0 1018.2 -- 77
2020-11-13 10:00:00 17.6 2 Oeste 7 Sur 0 1018.3 -- 83
2020-11-13 09:00:00 13.7 5 Sur 10 Sur 0 1018 -- 92
2020-11-13 08:00:00 11.5 5 Sur 9 Sudoeste 0 1017.4 -- 95
2020-11-13 07:00:00 11.6 6 Sur 9 Sur 0 1017.1 -- 95
2020-11-13 06:00:00 11.8 5 Sudoeste 9 Sudoeste 0 1017.3 -- 94
2020-11-13 05:00:00 11.8 4 Sur 9 Sur 0 1017.2 -- 94
2020-11-13 04:00:00 12 6 Sur 10 Sur 0 1017.6 -- 94
2020-11-13 03:00:00 11.8 8 Sur 11 Sudoeste 0 1018 -- 95
2020-11-13 02:00:00 11.7 6 Sudoeste 9 Sudoeste 0 1018.2 -- 94
2020-11-13 01:00:00 11.4 4 Sur 8 Sudoeste 0 1018.7 -- 94
2020-11-13 00:00:00 11.9 7 Sudoeste 10 Sudoeste 0 1019 -- 94
2020-11-12 23:00:00 11.6 4 Sudoeste 7 Sudoeste 0 1019.1 -- 94
2020-11-12 22:00:00 11.6 3 Sur 6 Oeste 0 1019.1 -- 93
2020-11-12 21:00:00 13 3 Noroeste 8 Oeste 0 1019 -- 91
2020-11-12 20:00:00 14.2 4 Oeste 7 Oeste 0 1019 -- 88
2020-11-12 19:00:00 15.6 3 Noroeste 5 Norte 0 1019 -- 83
2020-11-12 18:00:00 17.3 4 Norte 14 Nordeste 0 1018.7 -- 77
2020-11-12 17:00:00 18.9 12 Nordeste 21 Nordeste 0 1018.6 -- 70
2020-11-12 16:00:00 20.2 12 Nordeste 19 Nordeste 0 1018.5 -- 61
2020-11-12 15:00:00 21.1 10 Nordeste 21 Nordeste 0 1018.2 -- 50
2020-11-12 14:00:00 21.8 6 Nordeste 15 Nordeste 0 1018.8 -- 44
2020-11-12 13:00:00 21 5 Nordeste 10 Norte 0 1019.4 -- 42
2020-11-12 12:00:00 20.4 3 Nordeste 7 Nordeste 0 1020.2 -- 46
2020-11-12 11:00:00 18.8 3 Este 7 Este 0 1020.5 -- 66
2020-11-12 10:00:00 16 3 Sudoeste 10 Sur 0 1020.4 -- 76
2020-11-12 09:00:00 11 5 Sudoeste 9 Sur 0 1020.5 -- 95
2020-11-12 08:00:00 9.7 5 Sudoeste 10 Sudoeste 0 1020.1 -- 95
2020-11-12 07:00:00 9.6 7 Sudoeste 10 Sudoeste 0 1019.7 -- 95
2020-11-12 06:00:00 9.9 6 Sur 9 Sudoeste 0 1019.5 -- 95
2020-11-12 05:00:00 10.2 5 Sur 12 Sudoeste 0 1019.5 -- 95
2020-11-12 04:00:00 10.2 8 Sudoeste 12 Sudoeste 0 1019.5 -- 95
2020-11-12 03:00:00 10 5 Sur 11 Sudoeste 0 1020.1 -- 94
2020-11-12 02:00:00 10.7 6 Sudoeste 10 Sudoeste 0 1020.4 -- 94
2020-11-12 01:00:00 10.8 7 Sur 11 Sur 0 1020.8 -- 94
2020-11-12 00:00:00 11.6 4 Sur 8 Sudoeste 0 1021.2 -- 91
2020-11-11 23:00:00 12.4 2 Sudoeste 9 Oeste 0 1021.3 -- 90
2020-11-11 22:00:00 14.2 5 Oeste 8 Oeste 0 1021.1 -- 88
2020-11-11 21:00:00 14.6 3 Sudoeste 8 Oeste 0 1020.9 -- 88
2020-11-11 20:00:00 14.3 2 Sudoeste 6 Sur 0 1020.8 -- 87
2020-11-11 19:00:00 16.2 0 Calma 5 Oeste 0 1020.5 -- 81
2020-11-11 18:00:00 16.2 2 Nordeste 9 Este 0 1019.9 -- 82
2020-11-11 17:00:00 17.8 5 Este 14 Este 0 1019.9 -- 74
2020-11-11 16:00:00 19.2 8 Este 15 Este 0 1019.9 -- 66
2020-11-11 15:00:00 19.7 8 Nordeste 15 Este 0 1020 -- 64
2020-11-11 14:00:00 19.4 8 Este 17 Este 0 1020.4 -- 64
2020-11-11 13:00:00 20 7 Este 17 Este 0 1021 -- 62
2020-11-11 12:00:00 19.2 6 Este 15 Este 0 1021.8 -- 65
2020-11-11 11:00:00 18.7 6 Nordeste 9 Nordeste 0 1022.1 -- 68
2020-11-11 10:00:00 16.7 4 Sur 11 Sur 0 1022.5 -- 79
2020-11-11 09:00:00 12.3 7 Sur 12 Sudoeste 0 1022.5 -- 90
2020-11-11 08:00:00 9.4 6 Sur 12 Sudoeste 0 1022.2 -- 95
2020-11-11 07:00:00 9.1 8 Sudoeste 11 Sudoeste 0 1022 -- 95
2020-11-11 06:00:00 8.9 7 Sur 10 Sur 0 1022.2 -- 95
2020-11-11 05:00:00 9 6 Sur 10 Sur 0 1022.2 -- 95
2020-11-11 04:00:00 9.3 5 Sur 9 Sudoeste 0 1022.4 -- 94
2020-11-11 03:00:00 10.1 8 Sudoeste 11 Sudoeste 0 1022.5 -- 94
2020-11-11 02:00:00 10 6 Sudoeste 9 Sudoeste 0 1022.6 -- 94
2020-11-11 01:00:00 10.5 5 Sur 7 Sur 0 1022.7 -- 94
2020-11-11 00:00:00 11.3 6 Sudoeste 11 Oeste 0 1022.7 -- 93
2020-11-10 23:00:00 11.4 4 Sudoeste 8 Sudoeste 0 1022.8 -- 92
2020-11-10 22:00:00 12.2 3 Sudoeste 6 Sudoeste 0 1022.7 -- 91
2020-11-10 21:00:00 14.6 4 Norte 13 Norte 0 1022.4 -- 86
2020-11-10 20:00:00 15.9 6 Norte 21 Norte 0 1022.2 -- 82
2020-11-10 19:00:00 16.2 15 Nordeste 21 Nordeste 0 1022.1 -- 83
2020-11-10 18:00:00 16.8 13 Nordeste 27 Nordeste 0 1021.6 -- 80
2020-11-10 17:00:00 18.1 18 Nordeste 28 Nordeste 0 1020.8 -- 77
2020-11-10 16:00:00 19.7 19 Nordeste 30 Norte 0 1020.4 -- 71
2020-11-10 15:00:00 20.6 20 Nordeste 31 Nordeste 0 1020.2 -- 64
2020-11-10 14:00:00 21.4 17 Nordeste 26 Norte 0 1020.1 -- 58
2020-11-10 13:00:00 21.1 7 Este 13 Este 0 1020.7 -- 62
2020-11-10 12:00:00 20.6 2 Norte 9 Este 0 1021.2 -- 64
2020-11-10 11:00:00 20 2 Sudoeste 8 Sur 0 1021.5 -- 68
2020-11-10 10:00:00 16.6 5 Sur 9 Sudoeste 0 1021.3 -- 87
2020-11-10 09:00:00 12.2 4 Sur 6 Sur 0 1021 -- 94
2020-11-10 08:00:00 9.6 4 Sudoeste 9 Sur 0 1020.3 -- 97
2020-11-10 07:00:00 9.3 5 Sur 9 Sudoeste 0 1019.7 -- 96
2020-11-10 06:00:00 9.8 7 Sudoeste 11 Sudoeste 0 1019.5 -- 97
2020-11-10 05:00:00 9.9 6 Sudoeste 10 Sudoeste 0 1019.2 -- 96
2020-11-10 04:00:00 10.4 5 Sur 7 Sudoeste 0 1019.1 -- 96
2020-11-10 03:00:00 10.9 5 Sudoeste 9 Sudoeste 0 1019.2 -- 96
2020-11-10 02:00:00 11.3 5 Sudoeste 10 Sudoeste 0 1019.2 -- 96
2020-11-10 01:00:00 11.7 5 Sudoeste 9 Sudoeste 0 1019.2 -- 96
2020-11-10 00:00:00 12.6 4 Sudoeste 6 Sudoeste 0 1019.1 -- 96
2020-11-09 23:00:00 13.1 3 Sudoeste 9 Sudoeste 0 1019 -- 95
2020-11-09 22:00:00 13.7 5 Sudoeste 8 Sudoeste 0 1019 -- 95
2020-11-09 21:00:00 14.8 4 Sudoeste 6 Sudoeste 0 1018.7 -- 93
2020-11-09 20:00:00 15.4 2 Oeste 7 Nordeste 0 1018.4 -- 91
2020-11-09 19:00:00 16.9 2 Nordeste 9 Nordeste 0 1018.3 -- 87
2020-11-09 18:00:00 18.8 5 Nordeste 15 Nordeste 0 1017.8 -- 81
2020-11-09 17:00:00 19.7 10 Este 16 Nordeste 0 1017.4 -- 78
2020-11-09 16:00:00 21 8 Nordeste 17 Nordeste 0 1017 -- 72
2020-11-09 15:00:00 21.5 8 Nordeste 17 Nordeste 0 1016.9 -- 67
2020-11-09 14:00:00 21.7 8 Nordeste 16 Este 0 1017.1 -- 67
2020-11-09 13:00:00 21.7 7 Nordeste 15 Este 0 1017.6 -- 68
2020-11-09 12:00:00 20.4 6 Nordeste 12 Nordeste 0 1018.1 -- 70
2020-11-09 11:00:00 18.7 3 Nordeste 7 Nordeste 0 1018.5 -- 83
2020-11-09 10:00:00 16.2 4 Sur 9 Sur 0 1018.5 -- 93
2020-11-09 09:00:00 14 5 Sur 7 Sur 0 1018.4 -- 97
2020-11-09 08:00:00 12.2 4 Sur 9 Sur 0 1018 -- 97
2020-11-09 07:00:00 12.2 4 Sudoeste 8 Oeste 0.2 1017.7 -- 97
2020-11-09 06:00:00 12.4 4 Sur 8 Oeste 0 1017.6 -- 97
2020-11-09 05:00:00 11.8 6 Oeste 9 Oeste 0 1017.6 -- 96
2020-11-09 04:00:00 11.6 4 Sudoeste 12 Sudoeste 0 1017.5 -- 96
2020-11-09 03:00:00 11.9 7 Sur 10 Sudeste 0 1018.2 -- 96
2020-11-09 02:00:00 12.2 6 Sur 10 Sudoeste 0 1018.2 -- 96
2020-11-09 01:00:00 12.9 5 Sur 9 Sudoeste 0 1018.3 -- 96
2020-11-09 00:00:00 13.1 5 Sur 7 Sudoeste 0 1018.5 -- 95
2020-11-08 23:00:00 13.8 5 Sudoeste 7 Sudoeste 0 1018.5 -- 95
2020-11-08 22:00:00 14 4 Sudoeste 6 Sudoeste 0 1018.6 -- 95
2020-11-08 21:00:00 14.3 0 Calma 5 Oeste 0 1018.5 -- 94
2020-11-08 20:00:00 15.8 2 Sudoeste 5 Nordeste 0 1018.7 -- 93
2020-11-08 19:00:00 17.2 4 Norte 8 Nordeste 0 1018.7 -- 90
2020-11-08 18:00:00 17.9 6 Nordeste 10 Este 0 1018.2 -- 89
2020-11-08 17:00:00 19.3 9 Este 18 Este 0 1018.4 -- 83
2020-11-08 16:00:00 20.6 9 Este 18 Este 0 1018.3 -- 70
2020-11-08 15:00:00 21.5 10 Nordeste 19 Nordeste 0 1018.1 -- 68
2020-11-08 14:00:00 23.2 4 Este 9 Sudeste 0 1018.5 -- 56
2020-11-08 13:00:00 23 3 Sudeste 13 Sudeste 0 1019.2 -- 56
2020-11-08 12:00:00 21.6 5 Este 10 Sudeste 0 1020.1 -- 58
2020-11-08 11:00:00 19.9 2 Nordeste 6 Sudeste 0 1020.3 -- 78
2020-11-08 10:00:00 17.8 0 Calma 10 Sur 0 1020.4 -- 80
2020-11-08 09:00:00 13.4 5 Sur 9 Sur 0 1020.4 -- 91
2020-11-08 08:00:00 11.2 5 Sudoeste 13 Sudoeste 0 1020.3 -- 95
2020-11-08 07:00:00 10.8 7 Sudoeste 9 Sudoeste 0 1019.8 -- 96
2020-11-08 06:00:00 11.2 6 Sudoeste 9 Sudoeste 0 1019.6 -- 96
2020-11-08 05:00:00 11.6 4 Sur 8 Sur 0 1019.6 -- 95
2020-11-08 04:00:00 12.4 5 Sudoeste 10 Sur 0 1019.7 -- 96
2020-11-08 03:00:00 12.2 5 Sudoeste 9 Sudoeste 0 1020 -- 95
2020-11-08 02:00:00 12.2 4 Sur 9 Oeste 0 1020.3 -- 95
2020-11-08 01:00:00 13.3 4 Oeste 8 Oeste 0 1020.5 -- 95
2020-11-08 00:00:00 14 3 Oeste 6 Sudoeste 0 1020.4 -- 95
2020-11-07 23:00:00 14.6 0 Calma 12 Sur 0 1020.1 -- 93
2020-11-07 22:00:00 15.6 6 Sudoeste 12 Sur 0 1019.9 -- 92
2020-11-07 21:00:00 15.9 8 Sur 15 Sudeste 0 1019.6 -- 90
2020-11-07 20:00:00 15.5 3 Sur 10 Sudoeste 0 1019 -- 91
2020-11-07 19:00:00 17 4 Sudoeste 7 Sudoeste 0 1019.1 -- 88
2020-11-07 18:00:00 19 3 Sudoeste 9 Sudeste 0 1018.4 -- 86
2020-11-07 17:00:00 21.4 4 Sur 12 Sudoeste 0 1017.9 -- 73
2020-11-07 16:00:00 22.7 7 Sudoeste 14 Sur 0 1017.9 -- 65
2020-11-07 15:00:00 22.1 7 Sur 18 Sur 0 1017.5 -- 66
2020-11-07 14:00:00 20.3 5 Sudoeste 13 Sur 0 1017.7 -- 80
2020-11-07 13:00:00 17.5 6 Sur 31 Sur 3.6 1018 -- 91
2020-11-07 12:00:00 17.6 5 Sudoeste 16 Sudoeste 0.6 1019.8 -- 91
2020-11-07 11:00:00 17.7 9 Sudoeste 27 Sudoeste 1 1019.5 -- 87
2020-11-07 10:00:00 20.6 15 Sudoeste 31 Sudoeste 0 1018.7 -- 70
2020-11-07 09:00:00 19.2 5 Oeste 11 Sur 0 1017.9 -- 91
2020-11-07 08:00:00 18.5 3 Sudeste 8 Sudeste 0 1017.5 -- 92
2020-11-07 07:00:00 19.4 5 Sur 11 Oeste 0 1017.6 -- 89
2020-11-07 06:00:00 19.7 6 Norte 11 Norte 0 1016.5 -- 88
2020-11-07 05:00:00 20 2 Sudoeste 9 Sur 0 1016.6 -- 86
2020-11-07 04:00:00 19.1 3 Noroeste 9 Noroeste 0 1016.1 -- 87
2020-11-07 03:00:00 18.9 3 Norte 6 Nordeste 0 1016.3 -- 88
2020-11-07 02:00:00 19.3 3 Noroeste 8 Norte 0 1017 -- 87
2020-11-07 01:00:00 19.6 2 Sur 9 Sur 0 1017.6 -- 86
2020-11-07 00:00:00 19.8 3 Sur 11 Sudeste 0 1018 -- 85
2020-11-06 23:00:00 19.6 2 Sudeste 12 Sudeste 0 1018.3 -- 85
2020-11-06 22:00:00 20 3 Sudeste 11 Este 0 1018.3 -- 82
2020-11-06 21:00:00 19.9 3 Norte 13 Nordeste 0 1018.3 -- 83
2020-11-06 20:00:00 19.9 4 Norte 9 Norte 0 1018.5 -- 83
2020-11-06 19:00:00 20.2 4 Nordeste 18 Este 0 1018.6 -- 82
2020-11-06 18:00:00 20.5 8 Sudeste 16 Este 0 1018.5 -- 81
2020-11-06 17:00:00 21 13 Sudeste 23 Sudeste 0 1018.4 -- 78
2020-11-06 16:00:00 21.6 14 Sudeste 26 Este 0 1018.7 -- 76
2020-11-06 15:00:00 22.6 15 Sudeste 24 Sudeste 0 1019 -- 70
2020-11-06 14:00:00 22.1 16 Este 27 Sudeste 0 1019.3 -- 72
2020-11-06 13:00:00 21.9 17 Este 26 Este 0 1020 -- 74
2020-11-06 12:00:00 22.2 13 Sudeste 24 Sudeste 0 1020.7 -- 71
2020-11-06 11:00:00 21.4 12 Este 21 Este 0 1021 0.9 77
2020-11-06 10:00:00 20.6 5 Este 14 Norte 0 1021 -- 80
2020-11-06 09:00:00 19.5 5 Norte 8 Noroeste 0 1020.7 -- 86
2020-11-06 08:00:00 18.1 4 Norte 9 Noroeste 0 1020.1 -- 89
2020-11-06 07:00:00 18.3 6 Noroeste 9 Noroeste 0 1019.9 -- 88
2020-11-06 06:00:00 18 4 Noroeste 7 Noroeste 0 1020 -- 89
2020-11-06 05:00:00 17.9 4 Noroeste 10 Noroeste 0 1019.9 -- 88
2020-11-06 04:00:00 18.1 6 Noroeste 9 Noroeste 0 1019.6 -- 87
2020-11-06 03:00:00 18.7 5 Noroeste 9 Noroeste 0 1019.9 -- 85
2020-11-06 02:00:00 18.9 4 Nordeste 9 Este 0 1019.9 -- 84
2020-11-06 01:00:00 19.3 6 Este 12 Este 0 1020.2 -- 82
2020-11-06 00:00:00 18.8 2 Nordeste 14 Nordeste 0 1020.1 -- 84
2020-11-05 23:00:00 19.4 5 Nordeste 14 Este 0 1020.4 -- 81
2020-11-05 22:00:00 18.8 6 Nordeste 9 Nordeste 0 1020.7 -- 84
2020-11-05 21:00:00 18.9 6 Norte 17 Nordeste 0 1020.5 -- 82
2020-11-05 20:00:00 18.7 8 Nordeste 15 Este 0 1020.6 -- 83
2020-11-05 19:00:00 18.8 7 Nordeste 17 Nordeste 0 1020.7 -- 82
2020-11-05 18:00:00 19.4 9 Este 20 Este 0 1020.6 -- 78
2020-11-05 17:00:00 19.8 7 Este 21 Este 0 1020.3 -- 75
2020-11-05 16:00:00 20.3 10 Nordeste 21 Este 0 1020.2 -- 73
2020-11-05 15:00:00 20.2 9 Nordeste 24 Este 0 1020.1 -- 72
2020-11-05 14:00:00 20.5 14 Este 27 Este 0 1020.3 -- 68
2020-11-05 13:00:00 20.8 16 Este 31 Este 0 1020.8 -- 66
2020-11-05 12:00:00 20.7 16 Nordeste 30 Nordeste 0 1021.1 -- 74
2020-11-05 11:00:00 20 14 Nordeste 30 Nordeste 0 1021.6 -- 77
2020-11-05 10:00:00 19.5 13 Nordeste 30 Nordeste 0 1021.4 -- 77
2020-11-05 09:00:00 18.7 13 Nordeste 23 Nordeste 0 1021.4 -- 79
2020-11-05 08:00:00 18 12 Nordeste 21 Nordeste 0 1020.7 -- 80
2020-11-05 07:00:00 17.8 12 Nordeste 26 Nordeste 0 1020.4 -- 79
2020-11-05 06:00:00 17.9 12 Nordeste 27 Nordeste 0 1020.4 -- 81
2020-11-05 05:00:00 17.4 14 Nordeste 25 Nordeste 0 1019.9 -- 81
2020-11-05 04:00:00 17.6 14 Nordeste 23 Nordeste 0 1020 -- 79
2020-11-05 03:00:00 16.9 13 Nordeste 20 Nordeste 0 1019.9 -- 80
2020-11-05 02:00:00 16.9 14 Nordeste 21 Norte 0 1019.8 -- 78
2020-11-05 01:00:00 17.1 12 Norte 24 Nordeste 0 1020.4 -- 75
2020-11-05 00:00:00 16.9 16 Nordeste 30 Nordeste 0 1020.3 -- 76
2020-11-04 23:00:00 17.1 20 Nordeste 33 Nordeste 0 1019.7 -- 75
2020-11-04 22:00:00 17 19 Nordeste 31 Nordeste 0 1019.8 -- 74
2020-11-04 21:00:00 16.9 19 Nordeste 32 Nordeste 0 1019.2 -- 74
2020-11-04 20:00:00 16.8 23 Nordeste 38 Nordeste 0 1018.6 -- 72
2020-11-04 19:00:00 16.9 25 Nordeste 40 Nordeste 0 1017.8 -- 73
2020-11-04 18:00:00 16.9 18 Nordeste 36 Nordeste 0 1017.2 -- 73
2020-11-04 17:00:00 17.3 21 Nordeste 38 Nordeste 0 1016.8 -- 72
2020-11-04 16:00:00 17.4 21 Nordeste 37 Nordeste 0 1016.8 -- 74
2020-11-04 15:00:00 17.4 20 Nordeste 38 Nordeste 0 1016.5 -- 75
2020-11-04 14:00:00 17.7 19 Nordeste 36 Nordeste 0 1016.8 -- 74
2020-11-04 13:00:00 18.1 22 Nordeste 37 Nordeste 0 1017.1 -- 73
2020-11-04 12:00:00 18.4 15 Nordeste 36 Nordeste 0 1017.6 -- 71
2020-11-04 11:00:00 18.2 19 Nordeste 35 Nordeste 0 1018 0.3 73
2020-11-04 10:00:00 18.1 16 Nordeste 31 Nordeste 0 1018.3 -- 72
2020-11-04 09:00:00 17.5 11 Nordeste 30 Este 0 1018.1 -- 78
2020-11-04 08:00:00 16.4 6 Este 18 Nordeste 0.6 1017.7 -- 86
2020-11-04 07:00:00 16.6 11 Nordeste 28 Nordeste 0 1017.5 -- 83
2020-11-04 06:00:00 16.8 15 Nordeste 24 Nordeste 0 1017.6 -- 79
2020-11-04 05:00:00 16.6 12 Nordeste 20 Nordeste 0 1018.2 -- 80
2020-11-04 04:00:00 16.6 10 Norte 18 Nordeste 0 1018.5 -- 78
2020-11-04 03:00:00 16.8 11 Nordeste 21 Nordeste 0 1019.4 -- 77
2020-11-04 02:00:00 16.9 13 Nordeste 25 Norte 0 1019.8 -- 75
2020-11-04 01:00:00 17.3 18 Nordeste 30 Nordeste 0 1020.4 -- 71
2020-11-04 00:00:00 17.6 17 Nordeste 27 Nordeste 0 1020.7 -- 75
2020-11-03 23:00:00 17.7 16 Nordeste 29 Nordeste 0 1020.9 -- 76
2020-11-03 22:00:00 17.8 15 Nordeste 24 Nordeste 0 1021.2 -- 76
2020-11-03 21:00:00 17.9 15 Norte 24 Norte 0 1021.4 -- 77
2020-11-03 20:00:00 18.1 9 Norte 21 Norte 0 1021.1 -- 76
2020-11-03 19:00:00 18.1 9 Norte 19 Norte 0 1021 -- 74
2020-11-03 18:00:00 18.7 12 Nordeste 21 Nordeste 0 1020.4 -- 71
2020-11-03 17:00:00 19.4 11 Nordeste 22 Nordeste 0 1020.2 -- 67
2020-11-03 16:00:00 20.6 14 Nordeste 22 Nordeste 0 1020 -- 63
2020-11-03 15:00:00 20.9 14 Nordeste 22 Este 0 1019.7 -- 60
2020-11-03 14:00:00 20.8 11 Nordeste 28 Nordeste 0 1020 -- 64
2020-11-03 13:00:00 21.3 11 Nordeste 18 Nordeste 0 1020.4 -- 63
2020-11-03 12:00:00 20.9 5 Nordeste 16 Nordeste 0 1020.7 -- 65
2020-11-03 11:00:00 20.4 4 Nordeste 9 Nordeste 0 1021 -- 67
2020-11-03 10:00:00 19 2 Sudeste 5 Sur 0 1020.9 -- 73
2020-11-03 09:00:00 16.1 4 Sur 8 Sur 0 1020.7 -- 84
2020-11-03 08:00:00 13.2 4 Sudoeste 9 Sudoeste 0 1020.2 -- 93
2020-11-03 07:00:00 11.9 5 Sudoeste 8 Sur 0 1019.8 -- 95
2020-11-03 06:00:00 12 4 Sur 8 Sur 0 1019.7 -- 95
2020-11-03 05:00:00 11.7 5 Sudoeste 9 Sudoeste 0 1019.8 -- 95
2020-11-03 04:00:00 11 3 Sudoeste 9 Sudoeste 0 1019.6 -- 94
2020-11-03 03:00:00 11.3 6 Sudoeste 9 Sudoeste 0 1019.7 -- 95
2020-11-03 02:00:00 12.2 3 Sur 6 Sudoeste 0 1019.7 -- 95
2020-11-03 01:00:00 13.4 3 Sudoeste 9 Sudoeste 0 1019.8 -- 94
2020-11-03 00:00:00 13 5 Sudoeste 10 Sur 0 1019.9 -- 95
2020-11-02 23:00:00 13.4 7 Sur 12 Sudoeste 0 1020 -- 94
2020-11-02 22:00:00 14.1 6 Sudoeste 14 Sur 0 1020 -- 93
2020-11-02 21:00:00 14.4 7 Sur 11 Sur 0 1019.7 -- 92
2020-11-02 20:00:00 15.4 8 Sur 12 Sur 0 1019.4 -- 89
2020-11-02 19:00:00 16.5 7 Sur 14 Sudoeste 0 1018.9 -- 85
2020-11-02 18:00:00 18.6 6 Sudoeste 19 Sudoeste 0 1018.3 -- 76
2020-11-02 17:00:00 20.8 10 Sudoeste 21 Sudoeste 0 1018.1 -- 66
2020-11-02 16:00:00 22.7 9 Sudoeste 23 Sudoeste 0 1018.1 -- 58
2020-11-02 15:00:00 23.3 10 Sudoeste 23 Sudoeste 0 1018 -- 56
2020-11-02 14:00:00 23 10 Sudoeste 22 Sudoeste 0 1018.4 -- 58
2020-11-02 13:00:00 22.6 13 Sudoeste 22 Sur 0 1019.1 -- 59
2020-11-02 12:00:00 21.6 11 Sudoeste 23 Sur 0 1019.6 -- 64
2020-11-02 11:00:00 20.4 13 Sur 23 Sur 0 1020 -- 71
2020-11-02 10:00:00 19.1 9 Sur 18 Sudoeste 0 1020.1 -- 80
2020-11-02 09:00:00 15.9 9 Sur 17 Sudoeste 0 1019.7 -- 90
2020-11-02 08:00:00 13.1 8 Sur 15 Sur 0.2 1019.3 -- 96
2020-11-02 07:00:00 12.2 8 Sudoeste 11 Sudoeste 0 1019 -- 96
2020-11-02 06:00:00 12.3 7 Sur 14 Sur 0 1019 -- 96
2020-11-02 05:00:00 12.9 5 Sudoeste 10 Oeste 0 1018.8 -- 96
2020-11-02 04:00:00 13.5 10 Sur 18 Sur 0 1018.9 -- 95
2020-11-02 03:00:00 13.5 9 Sur 18 Sur 0 1019.1 -- 96
2020-11-02 02:00:00 13.5 8 Sur 15 Sur 0 1019.4 -- 95
2020-11-02 01:00:00 13.8 9 Sudoeste 15 Sur 0 1019.8 -- 95
2020-11-02 00:00:00 14 9 Sur 15 Sur 0 1020.2 -- 95
2020-11-01 23:00:00 14.2 7 Sur 12 Sur 0 1020.3 -- 94
2020-11-01 22:00:00 14.6 4 Sudoeste 13 Sur 0 1020.3 -- 93
2020-11-01 21:00:00 15 5 Sudoeste 10 Sur 0 1019.9 -- 92
2020-11-01 20:00:00 15.7 5 Sur 9 Sudoeste 0 1019.8 -- 89
2020-11-01 19:00:00 16.8 3 Sur 10 Sudoeste 0 1019.6 -- 85
2020-11-01 18:00:00 18.8 5 Sudoeste 19 Sudoeste 0 1019.2 -- 77
2020-11-01 17:00:00 21.1 9 Sudoeste 20 Sudoeste 0 1018.9 -- 68
2020-11-01 16:00:00 22.8 10 Sudoeste 21 Sudoeste 0 1019.1 -- 63
2020-11-01 15:00:00 23.4 10 Sudoeste 23 Sudoeste 0 1019.4 -- 60
2020-11-01 14:00:00 23.6 9 Sur 19 Sudoeste 0 1019.7 -- 57
2020-11-01 13:00:00 22.7 10 Sur 19 Sur 0 1020.4 -- 58
2020-11-01 12:00:00 21.8 9 Sudoeste 17 Oeste 0 1021 -- 62
2020-11-01 11:00:00 20.5 8 Sur 17 Sur 0 1021.3 -- 71
2020-11-01 10:00:00 18 7 Sur 14 Sur 0 1020.9 -- 80
2020-11-01 09:00:00 13.6 5 Sur 10 Sur 0 1020.6 -- 92
2020-11-01 08:00:00 9.9 6 Sur 8 Sur 0 1020.8 -- 96
2020-11-01 07:00:00 9.5 5 Sudoeste 11 Sudoeste 0 1020.5 -- 96
2020-11-01 06:00:00 9.2 4 Oeste 9 Sur 0 1020.7 -- 96
2020-11-01 05:00:00 9.8 7 Sur 10 Sur 0 1020.5 -- 96
2020-11-01 04:00:00 10.2 2 Sudoeste 10 Sur 0 1020.1 -- 96
2020-11-01 03:00:00 10.4 4 Sur 9 Oeste 0 1020.3 -- 96
2020-11-01 02:00:00 11 5 Sur 8 Sudoeste 0 1020.6 -- 96
2020-11-01 01:00:00 11.6 4 Oeste 10 Sudoeste 0 1021.3 -- 96
2020-11-01 00:00:00 11.9 6 Sur 10 Sudoeste 0 1021.3 -- 95
2020-10-31 23:00:00 13.4 3 Sudoeste 9 Sur 0 1021.5 -- 95
2020-10-31 22:00:00 13.8 4 Sudoeste 10 Sur 0 1021.2 -- 93
2020-10-31 21:00:00 14.4 5 Sur 11 Sur 0 1020.5 -- 90
2020-10-31 20:00:00 14.9 6 Sur 10 Sudoeste 0 1020.3 -- 88
2020-10-31 19:00:00 17 5 Sudoeste 13 Sur 0 1020.1 -- 82
2020-10-31 18:00:00 19.1 6 Sur 12 Sur 0 1019.8 -- 73
2020-10-31 17:00:00 21.1 6 Nordeste 15 Sur 0 1019.6 -- 68
2020-10-31 16:00:00 23.8 8 Sudoeste 17 Sudoeste 0 1019.2 -- 47
2020-10-31 15:00:00 24.2 -- -- -- -- 0 1019.4 -- 45
2020-10-31 14:00:00 24.4 8 Sudoeste 19 Sur 0 1020.1 -- 42
2020-10-31 13:00:00 23.6 8 Sur 19 Sur 0 1020.8 -- 46
2020-10-31 12:00:00 23 11 Sur 22 Sur 0 1021.4 -- 51
2020-10-31 11:00:00 21.1 9 Sur 17 Sur 0 1021.9 -- 65
2020-10-31 10:00:00 17.8 7 Sur 13 Sudoeste 0 1022.2 -- 81
2020-10-31 09:00:00 13.8 6 Sur 14 Sudoeste 0 1022.1 -- 85
2020-10-31 08:00:00 10.3 8 Sudoeste 11 Sudoeste 0 1021.7 -- 93
2020-10-31 07:00:00 9.4 5 Sudoeste 10 Sur 0 1021.3 -- 95
2020-10-31 06:00:00 10 7 Sudoeste 11 Sudoeste 0 1021.2 -- 95
2020-10-31 05:00:00 9.9 5 Sudoeste 10 Sudoeste 0 1021.3 -- 95
2020-10-31 04:00:00 9.9 4 Sudoeste 9 Sudoeste 0 1021.1 -- 93
2020-10-31 03:00:00 10.2 4 Sudoeste 9 Sudoeste 0 1021.4 -- 94
2020-10-31 02:00:00 11 4 Sudoeste 7 Oeste 0 1021.8 -- 95
2020-10-31 01:00:00 12.1 0 Calma 8 Sur 0 1021.8 -- 96
2020-10-31 00:00:00 13 6 Sur 10 Sur 0 1022 -- 95
2020-10-30 23:00:00 14 6 Sur 13 Sudoeste 0 1022.1 -- 95
2020-10-30 22:00:00 14.4 8 Sudoeste 13 Sudoeste 0 1022.2 -- 94
2020-10-30 21:00:00 14.4 6 Sudoeste 9 Sudoeste 0 1021.9 -- 92
2020-10-30 20:00:00 15 3 Sudoeste 9 Sudoeste 0 1021.7 -- 89
2020-10-30 19:00:00 16.2 3 Oeste 5 Oeste 0 1021.6 -- 88
2020-10-30 18:00:00 18.3 0 Calma 14 Nordeste 0 1021.3 -- 80
2020-10-30 17:00:00 20.5 8 Nordeste 18 Nordeste 0 1021.2 -- 70
2020-10-30 16:00:00 21.9 10 Nordeste 20 Nordeste 0 1021.3 -- 63
2020-10-30 15:00:00 23.1 12 Nordeste 20 Nordeste 0 1021.2 -- 56
2020-10-30 14:00:00 24.5 4 Sudeste 12 Sudeste 0 1021.3 -- 49
2020-10-30 13:00:00 24 3 Sudeste 10 Norte 0 1021.8 -- 50
2020-10-30 12:00:00 22 5 Noroeste 10 Noroeste 0 1022.5 -- 53
2020-10-30 11:00:00 21.2 3 Sudeste 7 Sudeste 0 1022.9 -- 57
2020-10-30 10:00:00 18.6 4 Sur 8 Sur 0 1022.9 -- 67
2020-10-30 09:00:00 14.1 4 Sudoeste 9 Sur 0 1022.8 -- 83
2020-10-30 08:00:00 11.2 5 Sur 9 Sudoeste 0 1022.5 -- 92
2020-10-30 07:00:00 9.7 5 Sudoeste 9 Sudoeste 0 1022.2 -- 94
2020-10-30 06:00:00 10.1 4 Sudoeste 9 Sudoeste 0 1022.1 -- 94
2020-10-30 05:00:00 10.5 4 Sudoeste 9 Sudoeste 0 1022.3 -- 95
2020-10-30 04:00:00 10.9 2 Oeste 12 Sur 0 1022.2 -- 95
2020-10-30 03:00:00 11.2 8 Sur 11 Sur 0 1022.2 -- 95
2020-10-30 02:00:00 11.6 0 Calma 10 Sur 0 1022.6 -- 94
2020-10-30 01:00:00 12.5 4 Sudoeste 12 Sudoeste 0 1022.9 -- 93
2020-10-30 00:00:00 12.5 6 Sur 12 Sudoeste 0 1023.1 -- 93
2020-10-29 23:00:00 13.6 5 Sur 9 Sudoeste 0 1023.1 -- 91
2020-10-29 22:00:00 14.2 3 Sudoeste 10 Sudoeste 0 1023.3 -- 90
2020-10-29 21:00:00 14.7 5 Sudoeste 9 Sur 0 1022.9 -- 90
2020-10-29 20:00:00 15.6 5 Noroeste 8 Noroeste 0 1022.7 -- 86
2020-10-29 19:00:00 17 4 Sur 9 Este 0 1022.6 -- 81
2020-10-29 18:00:00 19.1 4 Nordeste 15 Nordeste 0 1022.2 -- 72
2020-10-29 17:00:00 20.6 9 Nordeste 18 Nordeste 0 1021.7 -- 68
2020-10-29 16:00:00 22.8 9 Nordeste 16 Norte 0 1021.2 -- 59
2020-10-29 15:00:00 23.7 3 Noroeste 10 Noroeste 0 1021.3 -- 49
2020-10-29 14:00:00 22.8 3 Sudoeste 13 Sudeste 0 1022 -- 50
2020-10-29 13:00:00 22.7 6 Este 12 Sur 0 1022.5 -- 52
2020-10-29 12:00:00 21.2 4 Este 9 Nordeste 0 1023 -- 61
2020-10-29 11:00:00 20.1 4 Nordeste 13 Norte 0 1023.2 -- 67
2020-10-29 10:00:00 18.5 0 Calma 8 Sur 0 1023.4 -- 72
2020-10-29 09:00:00 14 5 Sur 10 Sur 0 1023.1 -- 83
2020-10-29 08:00:00 10.3 6 Sur 12 Sur 0 1022.2 -- 91
2020-10-29 07:00:00 9.1 7 Sur 10 Sudoeste 0 1021.6 -- 94
2020-10-29 06:00:00 9.5 5 Sur 9 Sur 0 1021.4 -- 94
2020-10-29 05:00:00 10.1 5 Sur 13 Sudoeste 0 1020.9 -- 93
2020-10-29 04:00:00 10.1 4 Sur 9 Sudoeste 0 1020.7 -- 93
2020-10-29 03:00:00 10.2 6 Sur 12 Sudeste 0 1020.6 -- 93
2020-10-29 02:00:00 11.2 4 Oeste 7 Oeste 0 1020.1 -- 93
2020-10-29 01:00:00 11.6 4 Sudoeste 8 Sudoeste 0 1019.7 -- 92
2020-10-29 00:00:00 12 4 Sudoeste 7 Sur 0 1019.7 -- 92
2020-10-28 23:00:00 13 4 Sur 7 Sur 0 1019.6 -- 91
2020-10-28 22:00:00 13.8 3 Nordeste 5 Sudoeste 0 1019.4 -- 88
2020-10-28 21:00:00 15.5 3 Oeste 10 Sur 0 1018.9 -- 82
2020-10-28 20:00:00 16 3 Sudoeste 11 Sudoeste 0 1018.5 -- 79
2020-10-28 19:00:00 17.7 5 Sur 15 Sur 0 1017.9 -- 71
2020-10-28 18:00:00 18.9 7 Sur 17 Sudoeste 0 1017.1 -- 63
2020-10-28 17:00:00 20.5 7 Sur 22 Sudoeste 0 1016.8 -- 57
2020-10-28 16:00:00 21.8 12 Sudoeste 27 Sudoeste 0 1016.7 -- 50
2020-10-28 15:00:00 23 14 Sudoeste 24 Sur 0 1016.3 -- 41
2020-10-28 14:00:00 23.3 14 Sur 27 Sudoeste 0 1016.4 -- 34
2020-10-28 13:00:00 22.9 11 Sur 27 Sur 0 1016.8 -- 42
2020-10-28 12:00:00 22.3 9 Sudoeste 18 Sudoeste 0 1017.3 -- 41
2020-10-28 11:00:00 20.6 7 Sur 13 Sur 0 1017.5 -- 57
2020-10-28 10:00:00 17.6 5 Sudeste 10 Sur 0 1017.5 -- 63
2020-10-28 09:00:00 11.9 5 Sur 10 Sur 0 1017 -- 82
2020-10-28 08:00:00 9.7 5 Sudoeste 12 Sudoeste 0 1016.3 -- 84
2020-10-28 07:00:00 8.6 7 Sur 13 Sur 0 1015.5 -- 87
2020-10-28 06:00:00 8.8 5 Sur 11 Sur 0 1015.1 -- 86
2020-10-28 05:00:00 8.7 5 Sur 9 Sudoeste 0 1014.6 -- 86
2020-10-28 04:00:00 9.5 6 Sudoeste 11 Sudoeste 0 1014.5 -- 84
2020-10-28 03:00:00 9.1 4 Sudoeste 9 Sudoeste 0 1014.5 -- 85
2020-10-28 02:00:00 10.5 5 Sudoeste 12 Sudoeste 0 1014.7 -- 78
2020-10-28 01:00:00 10.8 8 Sur 12 Sur 0 1014.8 -- 77
2020-10-28 00:00:00 9.7 3 Sudoeste 11 Sudoeste 0 1014.8 -- 82
2020-10-27 23:00:00 11 5 Sudoeste 11 Sur 0 1015.1 -- 78
2020-10-27 22:00:00 11.5 6 Sudoeste 12 Sudoeste 0 1015.1 -- 76
2020-10-27 21:00:00 11.7 6 Sur 11 Sudoeste 0 1014.6 -- 76
2020-10-27 20:00:00 13.1 2 Sur 11 Oeste 0 1014.2 -- 72
2020-10-27 19:00:00 14.9 5 Sudoeste 18 Sudoeste 0 1013.6 -- 64
2020-10-27 18:00:00 16.8 10 Sudoeste 21 Sudoeste 0 1013.1 -- 56
2020-10-27 17:00:00 18.7 14 Sudoeste 25 Sudoeste 0 1012.7 -- 48
2020-10-27 16:00:00 19.1 9 Sur 19 Sur 0 1012.6 -- 47
2020-10-27 15:00:00 19.6 7 Sur 22 Sudoeste 0 1012.6 -- 39
2020-10-27 14:00:00 20.4 7 Sur 18 Noroeste 0 1013 -- 38
2020-10-27 13:00:00 19.4 13 Noroeste 28 Noroeste 0 1013.6 -- 42
2020-10-27 12:00:00 19.1 17 Noroeste 37 Noroeste 0 1014.3 -- 44
2020-10-27 11:00:00 18.5 12 Noroeste 24 Noroeste 0 1014.3 -- 46
2020-10-27 10:00:00 18.6 3 Sudoeste 12 Sudoeste 0 1014 -- 43
2020-10-27 09:00:00 16.8 5 Oeste 15 Sur 0 1013.9 -- 54
2020-10-27 08:00:00 13.7 4 Sudoeste 14 Sur 0 1013.3 -- 62
2020-10-27 07:00:00 11.5 8 Sur 18 Sur 0 1012.6 -- 69
2020-10-27 06:00:00 13.6 8 Sur 26 Sur 0 1012.5 -- 58
2020-10-27 05:00:00 15.4 7 Sudoeste 21 Sudoeste 0 1012.3 -- 51
2020-10-27 04:00:00 16.7 12 Oeste 37 Oeste 0 1012.1 -- 46
2020-10-27 03:00:00 16.3 7 Oeste 28 Noroeste 0 1012.3 -- 47
2020-10-27 02:00:00 16.8 13 Oeste 40 Oeste 0 1012.6 -- 47
2020-10-27 01:00:00 16.4 12 Noroeste 31 Noroeste 0 1012.7 -- 48
2020-10-27 00:00:00 16.9 12 Oeste 31 Oeste 0 1012.7 -- 47